createdAt,value
2023-03-27T00:00:49.806Z,19.87
2023-03-27T00:01:49.846Z,19.90
2023-03-27T00:02:50.087Z,19.92
2023-03-27T00:03:50.058Z,19.90
2023-03-27T00:04:49.861Z,19.89
2023-03-27T00:05:49.841Z,19.90
2023-03-27T00:06:49.868Z,19.89
2023-03-27T00:07:49.891Z,19.86
2023-03-27T00:08:49.916Z,19.85
2023-03-27T00:09:49.956Z,19.85
2023-03-27T00:10:49.937Z,19.87
2023-03-27T00:11:49.953Z,19.87
2023-03-27T00:12:49.964Z,19.87
2023-03-27T00:13:51.358Z,19.86
2023-03-27T00:14:49.981Z,19.87
2023-03-27T00:15:50.041Z,19.89
2023-03-27T00:16:50.044Z,19.89
2023-03-27T00:17:50.068Z,19.87
2023-03-27T00:18:50.072Z,19.86
2023-03-27T00:19:50.096Z,19.85
2023-03-27T00:20:50.082Z,19.83
2023-03-27T00:21:50.111Z,19.83
2023-03-27T00:22:50.095Z,19.82
2023-03-27T00:23:50.103Z,19.83
2023-03-27T00:24:50.147Z,19.82
2023-03-27T00:25:50.116Z,19.83
2023-03-27T00:26:50.135Z,19.83
2023-03-27T00:27:50.152Z,19.82
2023-03-27T00:28:50.177Z,19.82
2023-03-27T00:29:50.208Z,19.83
2023-03-27T00:30:50.238Z,19.82
2023-03-27T00:31:50.215Z,19.82
2023-03-27T00:32:50.272Z,19.82
2023-03-27T00:33:50.307Z,19.85
2023-03-27T00:34:50.289Z,19.83
2023-03-27T00:35:50.404Z,19.83
2023-03-27T00:36:50.340Z,19.82
2023-03-27T00:37:50.352Z,19.82
2023-03-27T00:38:50.635Z,19.79
2023-03-27T00:39:50.407Z,19.76
2023-03-27T00:40:50.449Z,19.76
2023-03-27T00:41:50.387Z,19.78
2023-03-27T00:42:50.398Z,19.79
2023-03-27T00:43:50.430Z,19.78
2023-03-27T00:44:50.441Z,19.76
2023-03-27T00:45:50.461Z,19.79
2023-03-27T00:46:50.458Z,19.78
2023-03-27T00:47:50.499Z,19.76
2023-03-27T00:48:50.483Z,19.76
2023-03-27T00:49:50.497Z,19.76
2023-03-27T00:50:50.513Z,19.76
2023-03-27T00:51:50.551Z,19.75
2023-03-27T00:52:50.526Z,19.75
2023-03-27T00:53:50.567Z,19.75
2023-03-27T00:54:50.541Z,19.78
2023-03-27T00:55:50.557Z,19.71
2023-03-27T00:56:50.607Z,19.76
2023-03-27T00:57:50.590Z,19.71
2023-03-27T00:58:50.628Z,19.68
2023-03-27T00:59:50.608Z,19.65
2023-03-27T01:00:50.634Z,19.65
2023-03-27T01:01:50.692Z,19.68
2023-03-27T01:02:50.744Z,19.70
2023-03-27T01:03:50.719Z,19.70
2023-03-27T01:04:50.635Z,19.68
2023-03-27T01:05:50.660Z,19.65
2023-03-27T01:06:50.687Z,19.64
2023-03-27T01:08:00.647Z,19.68
2023-03-27T01:08:50.716Z,19.70
2023-03-27T01:09:50.729Z,19.68
2023-03-27T01:10:50.737Z,19.65
2023-03-27T01:11:50.754Z,19.61
2023-03-27T01:12:50.772Z,19.64
2023-03-27T01:13:50.800Z,19.62
2023-03-27T01:14:50.778Z,19.62
2023-03-27T01:15:50.845Z,19.62
2023-03-27T01:16:50.807Z,19.61
2023-03-27T01:17:50.836Z,19.62
2023-03-27T01:18:51.078Z,19.64
2023-03-27T01:19:50.831Z,19.62
2023-03-27T01:20:50.849Z,19.62
2023-03-27T01:21:50.861Z,19.60
2023-03-27T01:22:50.887Z,19.61
2023-03-27T01:23:58.871Z,19.61
2023-03-27T01:24:50.911Z,19.60
2023-03-27T01:25:50.922Z,19.60
2023-03-27T01:26:50.959Z,19.60
2023-03-27T01:27:50.978Z,19.58
2023-03-27T01:28:50.993Z,19.58
2023-03-27T01:29:51.016Z,19.58
2023-03-27T01:30:51.025Z,19.61
2023-03-27T01:31:51.103Z,19.61
2023-03-27T01:32:51.097Z,19.58
2023-03-27T01:33:51.080Z,19.58
2023-03-27T01:35:01.831Z,19.64
2023-03-27T01:35:51.094Z,19.61
2023-03-27T01:36:51.110Z,19.57
2023-03-27T01:37:51.137Z,19.58
2023-03-27T01:38:51.115Z,19.55
2023-03-27T01:39:51.172Z,19.55
2023-03-27T01:40:51.140Z,19.53
2023-03-27T01:41:51.183Z,19.53
2023-03-27T01:42:51.200Z,19.52
2023-03-27T01:43:51.215Z,19.52
2023-03-27T01:44:51.246Z,19.53
2023-03-27T01:45:51.266Z,19.50
2023-03-27T01:46:51.376Z,19.53
2023-03-27T01:47:51.349Z,19.50
2023-03-27T01:48:51.304Z,19.53
2023-03-27T01:49:51.321Z,19.52
2023-03-27T01:50:51.334Z,19.50
2023-03-27T01:51:51.374Z,19.49
2023-03-27T01:52:51.578Z,19.47
2023-03-27T01:53:51.374Z,19.47
2023-03-27T01:54:51.388Z,19.46
2023-03-27T01:55:51.436Z,19.47
2023-03-27T01:56:51.473Z,19.47
2023-03-27T01:57:51.438Z,19.50
2023-03-27T01:58:51.457Z,19.46
2023-03-27T01:59:51.468Z,19.42
2023-03-27T02:00:53.041Z,19.45
2023-03-27T02:01:51.510Z,19.42
2023-03-27T02:02:51.661Z,19.45
2023-03-27T02:03:51.518Z,19.45
2023-03-27T02:04:51.557Z,19.40
2023-03-27T02:05:51.536Z,19.39
2023-03-27T02:06:51.558Z,19.43
2023-03-27T02:07:51.580Z,19.46
2023-03-27T02:08:51.602Z,19.45
2023-03-27T02:09:51.617Z,19.42
2023-03-27T02:10:51.871Z,19.45
2023-03-27T02:11:51.691Z,19.42
2023-03-27T02:12:51.658Z,19.40
2023-03-27T02:13:51.648Z,19.40
2023-03-27T02:14:51.657Z,19.43
2023-03-27T02:15:51.681Z,19.45
2023-03-27T02:16:51.667Z,19.40
2023-03-27T02:17:51.707Z,19.42
2023-03-27T02:18:51.710Z,19.38
2023-03-27T02:19:51.736Z,19.39
2023-03-27T02:20:51.757Z,19.43
2023-03-27T02:21:51.783Z,19.39
2023-03-27T02:22:51.762Z,19.35
2023-03-27T02:23:51.786Z,19.34
2023-03-27T02:24:51.807Z,19.35
2023-03-27T02:25:51.832Z,19.38
2023-03-27T02:26:51.858Z,19.38
2023-03-27T02:27:51.892Z,19.39
2023-03-27T02:28:51.857Z,19.42
2023-03-27T02:29:51.880Z,19.38
2023-03-27T02:31:06.597Z,19.38
2023-03-27T02:31:51.910Z,19.34
2023-03-27T02:32:51.974Z,19.34
2023-03-27T02:33:51.901Z,19.34
2023-03-27T02:34:51.899Z,19.38
2023-03-27T02:35:52.186Z,19.38
2023-03-27T02:36:51.953Z,19.39
2023-03-27T02:37:51.973Z,19.38
2023-03-27T02:38:52.006Z,19.32
2023-03-27T02:39:52.027Z,19.30
2023-03-27T02:40:52.045Z,19.30
2023-03-27T02:41:52.088Z,19.32
2023-03-27T02:42:52.120Z,19.34
2023-03-27T02:43:52.115Z,19.30
2023-03-27T02:44:52.088Z,19.30
2023-03-27T02:45:52.104Z,19.27
2023-03-27T02:46:52.122Z,19.27
2023-03-27T02:47:52.138Z,19.30
2023-03-27T02:48:52.100Z,19.27
2023-03-27T02:49:52.126Z,19.27
2023-03-27T02:50:52.141Z,19.27
2023-03-27T02:51:52.197Z,19.30
2023-03-27T02:52:52.225Z,19.27
2023-03-27T02:53:52.173Z,19.27
2023-03-27T02:54:52.198Z,19.27
2023-03-27T02:55:52.213Z,19.30
2023-03-27T02:56:52.288Z,19.27
2023-03-27T02:57:52.649Z,19.28
2023-03-27T02:58:52.240Z,19.30
2023-03-27T02:59:52.235Z,19.27
2023-03-27T03:00:52.291Z,19.24
2023-03-27T03:01:52.228Z,19.24
2023-03-27T03:02:52.311Z,19.23
2023-03-27T03:03:52.270Z,19.25
2023-03-27T03:04:52.285Z,19.25
2023-03-27T03:05:52.305Z,19.23
2023-03-27T03:06:52.329Z,19.20
2023-03-27T03:07:52.344Z,19.16
2023-03-27T03:08:52.362Z,19.15
2023-03-27T03:09:52.383Z,19.17
2023-03-27T03:10:52.424Z,19.23
2023-03-27T03:11:52.433Z,19.21
2023-03-27T03:12:52.399Z,19.21
2023-03-27T03:13:52.415Z,19.24
2023-03-27T03:14:52.436Z,19.20
2023-03-27T03:15:52.489Z,19.20
2023-03-27T03:16:52.521Z,19.17
2023-03-27T03:17:52.469Z,19.20
2023-03-27T03:18:52.447Z,19.21
2023-03-27T03:19:52.467Z,19.17
2023-03-27T03:20:52.506Z,19.20
2023-03-27T03:21:52.490Z,19.20
2023-03-27T03:22:52.506Z,19.16
2023-03-27T03:23:58.182Z,19.15
2023-03-27T03:24:52.617Z,19.13
2023-03-27T03:25:52.600Z,19.13
2023-03-27T03:26:52.573Z,19.16
2023-03-27T03:27:52.587Z,19.15
2023-03-27T03:28:59.829Z,19.12
2023-03-27T03:29:52.596Z,19.15
2023-03-27T03:30:52.896Z,19.17
2023-03-27T03:31:52.634Z,19.16
2023-03-27T03:32:52.680Z,19.07
2023-03-27T03:33:52.626Z,19.09
2023-03-27T03:34:52.651Z,19.10
2023-03-27T03:35:52.693Z,19.12
2023-03-27T03:36:52.691Z,19.12
2023-03-27T03:37:52.757Z,19.10
2023-03-27T03:38:52.707Z,19.12
2023-03-27T03:39:52.724Z,19.15
2023-03-27T03:40:52.761Z,19.13
2023-03-27T03:41:52.767Z,19.10
2023-03-27T03:42:52.800Z,19.09
2023-03-27T03:43:52.815Z,19.10
2023-03-27T03:44:52.835Z,19.07
2023-03-27T03:45:52.890Z,19.05
2023-03-27T03:46:52.877Z,19.01
2023-03-27T03:47:52.948Z,19.01
2023-03-27T03:48:52.892Z,18.99
2023-03-27T03:49:52.916Z,19.02
2023-03-27T03:50:52.910Z,19.02
2023-03-27T03:52:03.619Z,19.01
2023-03-27T03:52:52.926Z,19.02
2023-03-27T03:53:52.952Z,19.07
2023-03-27T03:54:52.962Z,19.07
2023-03-27T03:55:53.005Z,19.02
2023-03-27T03:56:53.005Z,19.05
2023-03-27T03:57:52.970Z,19.05
2023-03-27T03:58:52.992Z,19.06
2023-03-27T03:59:53.028Z,19.02
2023-03-27T04:00:53.052Z,19.02
2023-03-27T04:01:53.153Z,19.02
2023-03-27T04:02:53.140Z,19.07
2023-03-27T04:03:53.167Z,19.09
2023-03-27T04:04:53.081Z,19.10
2023-03-27T04:05:53.109Z,19.12
2023-03-27T04:06:53.167Z,19.07
2023-03-27T04:07:53.140Z,19.09
2023-03-27T04:08:53.194Z,19.09
2023-03-27T04:09:53.180Z,19.07
2023-03-27T04:10:53.237Z,19.09
2023-03-27T04:11:53.223Z,19.10
2023-03-27T04:12:53.230Z,19.09
2023-03-27T04:13:53.268Z,19.10
2023-03-27T04:14:53.277Z,19.09
2023-03-27T04:15:53.324Z,19.09
2023-03-27T04:16:53.309Z,19.12
2023-03-27T04:17:53.379Z,19.09
2023-03-27T04:18:53.394Z,19.09
2023-03-27T04:19:53.373Z,19.09
2023-03-27T04:20:53.361Z,19.09
2023-03-27T04:21:53.514Z,19.09
2023-03-27T04:22:54.377Z,19.12
2023-03-27T04:23:53.413Z,19.15
2023-03-27T04:24:53.425Z,19.16
2023-03-27T04:25:53.491Z,19.15
2023-03-27T04:26:53.471Z,19.16
2023-03-27T04:27:53.486Z,19.15
2023-03-27T04:28:53.508Z,19.15
2023-03-27T04:29:53.534Z,19.16
2023-03-27T04:30:53.551Z,19.15
2023-03-27T04:31:53.617Z,19.12
2023-03-27T04:32:53.667Z,19.12
2023-03-27T04:33:53.614Z,19.13
2023-03-27T04:34:53.636Z,19.10
2023-03-27T04:36:06.418Z,19.09
2023-03-27T04:36:53.650Z,19.09
2023-03-27T04:37:53.666Z,19.09
2023-03-27T04:38:53.700Z,19.07
2023-03-27T04:39:53.713Z,19.10
2023-03-27T04:40:53.792Z,19.12
2023-03-27T04:41:53.733Z,19.12
2023-03-27T04:42:53.743Z,19.13
2023-03-27T04:43:53.772Z,19.12
2023-03-27T04:44:53.788Z,19.12
2023-03-27T04:45:53.797Z,19.10
2023-03-27T04:46:53.819Z,19.09
2023-03-27T04:47:53.839Z,19.01
2023-03-27T04:48:53.798Z,18.94
2023-03-27T04:49:53.823Z,18.91
2023-03-27T04:50:53.874Z,18.86
2023-03-27T04:51:53.859Z,18.86
2023-03-27T04:52:53.847Z,18.79
2023-03-27T04:53:53.870Z,18.79
2023-03-27T04:54:53.848Z,18.76
2023-03-27T04:55:53.861Z,18.71
2023-03-27T04:56:53.895Z,18.74
2023-03-27T04:57:53.894Z,18.74
2023-03-27T04:58:53.928Z,18.74
2023-03-27T04:59:53.907Z,18.76
2023-03-27T05:02:19.869Z,18.75
2023-03-27T05:03:19.877Z,18.71
2023-03-27T05:04:19.906Z,18.74
2023-03-27T05:05:19.882Z,18.69
2023-03-27T05:06:19.902Z,18.76
2023-03-27T05:07:19.956Z,18.78
2023-03-27T05:08:19.933Z,18.82
2023-03-27T05:09:20.172Z,18.82
2023-03-27T05:10:21.559Z,18.83
2023-03-27T05:11:19.942Z,18.87
2023-03-27T05:12:19.959Z,18.90
2023-03-27T05:13:19.980Z,18.96
2023-03-27T05:14:20.007Z,18.94
2023-03-27T05:15:20.034Z,18.97
2023-03-27T05:16:20.084Z,18.97
2023-03-27T05:17:20.060Z,18.94
2023-03-27T05:18:20.086Z,18.97
2023-03-27T05:19:20.100Z,18.97
2023-03-27T05:20:20.101Z,18.99
2023-03-27T05:21:20.129Z,19.05
2023-03-27T05:22:20.150Z,19.01
2023-03-27T05:23:20.196Z,19.02
2023-03-27T05:24:20.186Z,19.06
2023-03-27T05:25:20.168Z,19.07
2023-03-27T05:26:20.203Z,18.97
2023-03-27T05:27:20.225Z,18.99
2023-03-27T05:28:20.248Z,19.02
2023-03-27T05:29:20.286Z,19.01
2023-03-27T05:30:20.285Z,19.09
2023-03-27T05:31:20.373Z,19.12
2023-03-27T05:32:20.296Z,19.12
2023-03-27T05:33:20.320Z,19.09
2023-03-27T05:34:20.359Z,19.10
2023-03-27T05:35:20.363Z,19.12
2023-03-27T05:36:20.342Z,19.16
2023-03-27T05:37:20.385Z,19.13
2023-03-27T05:38:20.420Z,19.10
2023-03-27T05:39:20.498Z,19.13
2023-03-27T05:40:20.477Z,19.16
2023-03-27T05:41:20.470Z,19.20
2023-03-27T05:42:20.503Z,19.20
2023-03-27T05:43:20.484Z,19.23
2023-03-27T05:44:20.513Z,19.21
2023-03-27T05:45:20.535Z,19.20
2023-03-27T05:46:21.730Z,19.16
2023-03-27T05:47:20.597Z,19.16
2023-03-27T05:48:20.589Z,19.21
2023-03-27T05:49:20.607Z,19.20
2023-03-27T05:50:20.585Z,19.24
2023-03-27T05:51:20.613Z,19.27
2023-03-27T05:52:20.647Z,19.30
2023-03-27T05:53:20.679Z,19.27
2023-03-27T05:54:20.698Z,19.27
2023-03-27T05:55:20.709Z,19.27
2023-03-27T05:56:20.700Z,19.31
2023-03-27T05:57:20.780Z,19.31
2023-03-27T05:58:20.730Z,19.31
2023-03-27T05:59:20.764Z,19.34
2023-03-27T06:00:20.751Z,19.32
2023-03-27T06:01:20.792Z,19.34
2023-03-27T06:02:21.588Z,19.34
2023-03-27T06:03:22.134Z,19.34
2023-03-27T06:04:20.864Z,19.34
2023-03-27T06:05:20.985Z,19.32
2023-03-27T06:06:20.842Z,19.31
2023-03-27T06:07:20.869Z,19.32
2023-03-27T06:08:20.866Z,19.34
2023-03-27T06:09:20.846Z,19.34
2023-03-27T06:10:20.885Z,19.32
2023-03-27T06:11:20.894Z,19.30
2023-03-27T06:12:20.897Z,19.31
2023-03-27T06:13:20.882Z,19.32
2023-03-27T06:14:20.929Z,19.32
2023-03-27T06:15:20.932Z,19.32
2023-03-27T06:16:21.073Z,19.31
2023-03-27T06:17:20.982Z,19.32
2023-03-27T06:18:20.970Z,19.32
2023-03-27T06:19:21.009Z,19.34
2023-03-27T06:20:21.000Z,19.31
2023-03-27T06:21:20.998Z,19.34
2023-03-27T06:22:20.984Z,19.32
2023-03-27T06:23:21.015Z,19.32
2023-03-27T06:24:21.036Z,19.34
2023-03-27T06:25:21.082Z,19.38
2023-03-27T06:26:21.064Z,19.39
2023-03-27T06:27:21.131Z,19.35
2023-03-27T06:28:21.098Z,19.35
2023-03-27T06:29:21.134Z,19.32
2023-03-27T06:30:21.177Z,19.34
2023-03-27T06:31:21.181Z,19.32
2023-03-27T06:32:21.202Z,19.34
2023-03-27T06:33:21.186Z,19.31
2023-03-27T06:34:21.221Z,19.31
2023-03-27T06:35:28.042Z,19.35
2023-03-27T06:36:21.271Z,19.34
2023-03-27T06:37:21.213Z,19.35
2023-03-27T06:38:21.237Z,19.34
2023-03-27T06:39:21.265Z,19.35
2023-03-27T06:40:21.261Z,19.34
2023-03-27T06:41:21.247Z,19.32
2023-03-27T06:42:21.269Z,19.34
2023-03-27T06:43:21.328Z,19.32
2023-03-27T06:44:21.304Z,19.34
2023-03-27T06:45:21.342Z,19.31
2023-03-27T06:46:21.547Z,19.30
2023-03-27T06:47:21.429Z,19.27
2023-03-27T06:48:22.651Z,19.24
2023-03-27T06:49:21.321Z,19.27
2023-03-27T06:50:21.318Z,19.24
2023-03-27T06:51:21.303Z,19.24
2023-03-27T06:52:21.326Z,19.23
2023-03-27T06:53:27.182Z,19.16
2023-03-27T06:54:21.348Z,19.16
2023-03-27T06:55:21.378Z,19.13
2023-03-27T06:56:21.479Z,19.16
2023-03-27T06:57:21.436Z,19.23
2023-03-27T06:58:21.405Z,19.24
2023-03-27T06:59:21.446Z,19.27
2023-03-27T07:00:21.479Z,19.28
2023-03-27T07:01:21.497Z,19.30
2023-03-27T07:02:21.447Z,19.30
2023-03-27T07:03:21.582Z,19.30
2023-03-27T07:04:21.485Z,19.28
2023-03-27T07:05:21.536Z,19.28
2023-03-27T07:06:21.505Z,19.28
2023-03-27T07:07:21.537Z,19.27
2023-03-27T07:08:24.204Z,19.28
2023-03-27T07:09:21.578Z,19.31
2023-03-27T07:10:21.574Z,19.31
2023-03-27T07:11:21.598Z,19.32
2023-03-27T07:12:21.593Z,19.28
2023-03-27T07:13:21.604Z,19.27
2023-03-27T07:14:21.590Z,19.28
2023-03-27T07:15:21.651Z,19.30
2023-03-27T07:16:21.681Z,19.30
2023-03-27T07:17:21.760Z,19.27
2023-03-27T07:18:21.686Z,19.31
2023-03-27T07:19:21.688Z,19.34
2023-03-27T07:20:21.724Z,19.32
2023-03-27T07:21:21.749Z,19.32
2023-03-27T07:22:21.768Z,19.32
2023-03-27T07:23:21.808Z,19.34
2023-03-27T07:24:21.958Z,19.39
2023-03-27T07:25:21.842Z,19.38
2023-03-27T07:26:21.849Z,19.40
2023-03-27T07:27:21.836Z,19.42
2023-03-27T07:28:21.865Z,19.42
2023-03-27T07:29:21.855Z,19.39
2023-03-27T07:30:21.917Z,19.40
2023-03-27T07:31:36.487Z,19.40
2023-03-27T07:32:29.998Z,19.38
2023-03-27T07:33:22.102Z,19.40
2023-03-27T07:34:21.959Z,19.40
2023-03-27T07:35:22.004Z,19.40
2023-03-27T07:36:21.970Z,19.39
2023-03-27T07:37:21.996Z,19.39
2023-03-27T07:38:21.983Z,19.38
2023-03-27T07:39:22.026Z,19.40
2023-03-27T07:40:26.608Z,19.40
2023-03-27T07:41:22.009Z,19.38
2023-03-27T07:42:21.998Z,19.34
2023-03-27T07:43:22.029Z,19.38
2023-03-27T07:44:22.068Z,19.38
2023-03-27T07:45:22.071Z,19.39
2023-03-27T07:46:22.177Z,19.39
2023-03-27T07:47:22.159Z,19.43
2023-03-27T07:48:22.064Z,19.45
2023-03-27T07:49:38.778Z,19.46
2023-03-27T07:50:22.059Z,19.45
2023-03-27T07:51:22.118Z,19.46
2023-03-27T07:52:22.110Z,19.43
2023-03-27T07:53:33.526Z,19.45
2023-03-27T07:54:22.091Z,19.42
2023-03-27T07:55:22.114Z,19.35
2023-03-27T07:56:22.165Z,19.35
2023-03-27T07:57:22.223Z,19.40
2023-03-27T07:58:22.288Z,19.46
2023-03-27T07:59:22.174Z,19.49
2023-03-27T08:00:22.239Z,19.45
2023-03-27T08:01:22.250Z,19.38
2023-03-27T08:02:22.250Z,19.38
2023-03-27T08:03:22.526Z,19.35
2023-03-27T08:04:22.401Z,19.38
2023-03-27T08:05:22.303Z,19.40
2023-03-27T08:06:22.340Z,19.45
2023-03-27T08:07:22.332Z,19.40
2023-03-27T08:08:22.352Z,19.40
2023-03-27T08:09:22.375Z,19.42
2023-03-27T08:10:22.443Z,19.39
2023-03-27T08:11:30.234Z,19.46
2023-03-27T08:12:22.404Z,19.43
2023-03-27T08:13:22.570Z,19.43
2023-03-27T08:14:22.443Z,19.42
2023-03-27T08:15:22.466Z,19.40
2023-03-27T08:16:22.500Z,19.43
2023-03-27T08:17:22.541Z,19.39
2023-03-27T08:18:22.656Z,19.43
2023-03-27T08:19:22.546Z,19.47
2023-03-27T08:20:22.663Z,19.50
2023-03-27T08:21:22.550Z,19.53
2023-03-27T08:22:22.565Z,19.61
2023-03-27T08:23:22.682Z,19.70
2023-03-27T08:24:22.590Z,19.70
2023-03-27T08:25:22.963Z,19.67
2023-03-27T08:26:22.577Z,19.71
2023-03-27T08:27:22.604Z,19.68
2023-03-27T08:28:22.633Z,19.67
2023-03-27T08:29:22.622Z,19.65
2023-03-27T08:30:22.610Z,19.70
2023-03-27T08:31:22.696Z,19.75
2023-03-27T08:32:22.673Z,19.80
2023-03-27T08:33:22.744Z,19.83
2023-03-27T08:34:22.690Z,19.83
2023-03-27T08:35:22.767Z,19.86
2023-03-27T08:36:22.717Z,19.89
2023-03-27T08:37:22.737Z,19.92
2023-03-27T08:38:27.024Z,19.89
2023-03-27T08:39:22.816Z,19.89
2023-03-27T08:40:22.787Z,19.83
2023-03-27T08:41:22.819Z,19.80
2023-03-27T08:42:22.845Z,19.83
2023-03-27T08:43:23.217Z,19.92
2023-03-27T08:44:22.899Z,19.98
2023-03-27T08:45:22.939Z,20.00
2023-03-27T08:46:23.003Z,19.98
2023-03-27T08:47:23.030Z,20.00
2023-03-27T08:48:22.952Z,19.98
2023-03-27T08:49:22.979Z,20.01
2023-03-27T08:50:22.971Z,20.00
2023-03-27T08:51:22.977Z,20.01
2023-03-27T08:52:22.955Z,20.00
2023-03-27T08:53:22.972Z,20.00
2023-03-27T08:54:23.010Z,20.00
2023-03-27T08:55:22.995Z,19.97
2023-03-27T08:56:23.019Z,19.98
2023-03-27T08:57:23.041Z,20.04
2023-03-27T08:58:23.027Z,20.10
2023-03-27T08:59:23.079Z,20.07
2023-03-27T09:00:23.063Z,20.07
2023-03-27T09:01:23.094Z,20.02
2023-03-27T09:02:23.120Z,20.01
2023-03-27T09:03:23.244Z,20.00
2023-03-27T09:04:23.090Z,19.98
2023-03-27T09:05:23.115Z,19.98
2023-03-27T09:06:23.102Z,20.00
2023-03-27T09:07:23.152Z,20.01
2023-03-27T09:08:23.141Z,20.10
2023-03-27T09:09:23.155Z,20.16
2023-03-27T09:10:23.133Z,20.23
2023-03-27T09:11:23.142Z,20.30
2023-03-27T09:12:23.162Z,20.31
2023-03-27T09:13:23.191Z,20.35
2023-03-27T09:14:23.221Z,20.35
2023-03-27T09:15:23.255Z,20.34
2023-03-27T09:16:23.375Z,20.31
2023-03-27T09:17:23.323Z,20.27
2023-03-27T09:18:23.298Z,20.27
2023-03-27T09:19:23.332Z,20.30
2023-03-27T09:20:23.350Z,20.26
2023-03-27T09:21:23.390Z,20.20
2023-03-27T09:22:23.380Z,20.17
2023-03-27T09:23:23.435Z,20.08
2023-03-27T09:24:23.403Z,20.12
2023-03-27T09:25:23.438Z,20.13
2023-03-27T09:26:23.479Z,20.16
2023-03-27T09:27:23.564Z,20.16
2023-03-27T09:28:23.451Z,20.20
2023-03-27T09:29:23.449Z,20.23
2023-03-27T09:30:23.434Z,20.22
2023-03-27T09:31:23.457Z,20.19
2023-03-27T09:32:23.464Z,20.17
2023-03-27T09:33:23.443Z,20.19
2023-03-27T09:34:23.473Z,20.20
2023-03-27T09:35:23.514Z,20.22
2023-03-27T09:36:23.538Z,20.22
2023-03-27T09:37:23.532Z,20.25
2023-03-27T09:38:23.555Z,20.26
2023-03-27T09:39:23.597Z,20.23
2023-03-27T09:40:23.591Z,20.22
2023-03-27T09:41:23.586Z,20.20
2023-03-27T09:42:23.617Z,20.26
2023-03-27T09:43:24.645Z,20.38
2023-03-27T09:44:23.670Z,20.48
2023-03-27T09:45:23.693Z,20.51
2023-03-27T09:46:23.768Z,20.53
2023-03-27T09:47:23.746Z,20.54
2023-03-27T09:48:23.762Z,20.60
2023-03-27T09:49:23.747Z,20.71
2023-03-27T09:50:24.576Z,20.76
2023-03-27T09:51:23.766Z,20.81
2023-03-27T09:52:23.754Z,20.83
2023-03-27T09:53:23.776Z,20.87
2023-03-27T09:54:23.852Z,20.90
2023-03-27T09:55:23.850Z,20.93
2023-03-27T09:56:23.831Z,20.94
2023-03-27T09:57:23.858Z,20.94
2023-03-27T09:58:23.872Z,20.93
2023-03-27T09:59:23.901Z,20.88
2023-03-27T10:00:23.936Z,20.82
2023-03-27T10:01:24.000Z,20.76
2023-03-27T10:02:23.939Z,20.73
2023-03-27T10:03:24.044Z,20.63
2023-03-27T10:04:23.923Z,20.60
2023-03-27T10:05:23.946Z,20.63
2023-03-27T10:06:23.970Z,20.63
2023-03-27T10:07:24.023Z,20.66
2023-03-27T10:08:26.670Z,20.71
2023-03-27T10:09:24.045Z,20.73
2023-03-27T10:10:24.031Z,20.75
2023-03-27T10:11:24.087Z,20.73
2023-03-27T10:12:24.057Z,20.71
2023-03-27T10:13:24.089Z,20.68
2023-03-27T10:14:24.111Z,20.63
2023-03-27T10:15:24.140Z,20.61
2023-03-27T10:16:24.233Z,20.66
2023-03-27T10:17:24.271Z,20.66
2023-03-27T10:18:24.152Z,20.68
2023-03-27T10:19:24.175Z,20.72
2023-03-27T10:20:24.190Z,20.79
2023-03-27T10:21:24.205Z,20.85
2023-03-27T10:22:24.190Z,20.96
2023-03-27T10:23:24.242Z,21.00
2023-03-27T10:24:24.201Z,21.05
2023-03-27T10:25:24.189Z,21.12
2023-03-27T10:26:24.242Z,21.16
2023-03-27T10:27:24.249Z,21.18
2023-03-27T10:28:24.252Z,21.13
2023-03-27T10:29:24.267Z,21.09
2023-03-27T10:30:24.286Z,21.01
2023-03-27T10:31:24.377Z,20.96
2023-03-27T10:32:24.264Z,20.90
2023-03-27T10:33:24.261Z,20.88
2023-03-27T10:34:24.288Z,20.91
2023-03-27T10:35:24.341Z,20.97
2023-03-27T10:36:24.276Z,21.01
2023-03-27T10:37:24.330Z,20.97
2023-03-27T10:38:24.311Z,20.94
2023-03-27T10:39:24.345Z,20.87
2023-03-27T10:40:24.374Z,20.82
2023-03-27T10:41:27.941Z,20.81
2023-03-27T10:42:24.380Z,20.79
2023-03-27T10:43:24.392Z,20.78
2023-03-27T10:44:24.381Z,20.76
2023-03-27T10:45:24.406Z,20.79
2023-03-27T10:46:24.451Z,20.83
2023-03-27T10:47:24.473Z,20.91
2023-03-27T10:48:24.424Z,21.01
2023-03-27T10:49:24.446Z,21.05
2023-03-27T10:50:24.471Z,21.05
2023-03-27T10:51:28.340Z,21.05
2023-03-27T10:52:24.467Z,21.03
2023-03-27T10:53:24.612Z,21.05
2023-03-27T10:54:24.558Z,20.97
2023-03-27T10:55:24.450Z,20.93
2023-03-27T10:56:24.485Z,20.90
2023-03-27T10:57:24.530Z,20.83
2023-03-27T10:58:24.506Z,20.82
2023-03-27T10:59:34.795Z,20.76
2023-03-27T11:00:24.553Z,20.73
2023-03-27T11:01:24.602Z,20.76
2023-03-27T11:02:24.601Z,20.81
2023-03-27T11:03:24.619Z,20.82
2023-03-27T11:04:24.617Z,20.85
2023-03-27T11:05:24.610Z,20.91
2023-03-27T11:06:24.594Z,20.93
2023-03-27T11:07:24.593Z,21.01
2023-03-27T11:08:24.618Z,21.15
2023-03-27T11:09:24.632Z,21.28
2023-03-27T11:10:24.617Z,21.42
2023-03-27T11:11:24.638Z,21.52
2023-03-27T11:12:24.665Z,21.53
2023-03-27T11:13:24.687Z,21.48
2023-03-27T11:14:24.714Z,21.36
2023-03-27T11:15:24.830Z,21.19
2023-03-27T11:16:24.835Z,21.03
2023-03-27T11:17:24.804Z,21.00
2023-03-27T11:18:24.786Z,20.94
2023-03-27T11:19:24.832Z,20.88
2023-03-27T11:20:26.393Z,20.83
2023-03-27T11:21:24.827Z,20.93
2023-03-27T11:22:24.846Z,21.05
2023-03-27T11:23:24.881Z,21.06
2023-03-27T11:24:24.857Z,21.05
2023-03-27T11:25:24.891Z,20.98
2023-03-27T11:26:24.909Z,20.97
2023-03-27T11:27:24.944Z,20.93
2023-03-27T11:28:24.985Z,20.97
2023-03-27T11:29:24.992Z,20.98
2023-03-27T11:30:25.028Z,21.00
2023-03-27T11:31:25.082Z,20.94
2023-03-27T11:32:25.056Z,20.91
2023-03-27T11:33:25.038Z,20.90
2023-03-27T11:34:28.813Z,20.88
2023-03-27T11:35:25.083Z,20.88
2023-03-27T11:36:25.105Z,20.88
2023-03-27T11:37:25.137Z,20.90
2023-03-27T11:38:25.180Z,20.97
2023-03-27T11:39:25.270Z,21.01
2023-03-27T11:40:25.194Z,21.05
2023-03-27T11:41:25.219Z,21.11
2023-03-27T11:42:25.267Z,21.16
2023-03-27T11:43:25.248Z,21.22
2023-03-27T11:44:25.272Z,21.28
2023-03-27T11:45:25.301Z,21.27
2023-03-27T11:46:25.408Z,21.21
2023-03-27T11:47:25.554Z,21.12
2023-03-27T11:48:25.367Z,21.08
2023-03-27T11:49:25.404Z,21.03
2023-03-27T11:50:25.424Z,21.08
2023-03-27T11:51:25.449Z,21.05
2023-03-27T11:52:25.481Z,21.01
2023-03-27T11:53:25.474Z,20.97
2023-03-27T11:54:25.470Z,20.98
2023-03-27T11:55:25.459Z,21.03
2023-03-27T11:56:25.475Z,21.13
2023-03-27T11:57:25.461Z,21.21
2023-03-27T11:58:25.446Z,21.21
2023-03-27T11:59:25.475Z,21.11
2023-03-27T12:00:25.477Z,21.05
2023-03-27T12:01:25.528Z,20.94
2023-03-27T12:02:25.654Z,20.83
2023-03-27T12:03:25.618Z,20.79
2023-03-27T12:04:25.594Z,20.73
2023-03-27T12:05:25.547Z,20.72
2023-03-27T12:06:25.581Z,20.68
2023-03-27T12:07:35.122Z,20.66
2023-03-27T12:08:25.629Z,20.71
2023-03-27T12:09:25.613Z,20.78
2023-03-27T12:10:28.913Z,20.83
2023-03-27T12:11:25.646Z,20.88
2023-03-27T12:12:25.631Z,20.93
2023-03-27T12:13:34.944Z,20.96
2023-03-27T12:14:40.134Z,20.97
2023-03-27T12:15:25.684Z,20.96
2023-03-27T12:16:25.750Z,20.91
2023-03-27T12:17:25.754Z,20.90
2023-03-27T12:18:35.415Z,20.88
2023-03-27T12:19:29.590Z,20.88
2023-03-27T12:20:27.425Z,20.87
2023-03-27T12:21:25.748Z,20.82
2023-03-27T12:22:25.730Z,20.78
2023-03-27T12:23:25.753Z,20.73
2023-03-27T12:24:25.774Z,20.66
2023-03-27T12:25:25.800Z,20.63
2023-03-27T12:26:25.836Z,20.61
2023-03-27T12:27:25.862Z,20.60
2023-03-27T12:28:25.879Z,20.64
2023-03-27T12:29:25.899Z,20.66
2023-03-27T12:30:25.941Z,20.69
2023-03-27T12:31:25.967Z,20.75
2023-03-27T12:32:25.941Z,20.78
2023-03-27T12:33:25.945Z,20.83
2023-03-27T12:34:25.964Z,20.83
2023-03-27T12:35:26.026Z,20.87
2023-03-27T12:36:25.971Z,20.90
2023-03-27T12:37:26.004Z,20.83
2023-03-27T12:38:26.036Z,20.79
2023-03-27T12:39:26.073Z,20.69
2023-03-27T12:40:26.027Z,20.63
2023-03-27T12:41:26.058Z,20.63
2023-03-27T12:42:26.041Z,20.60
2023-03-27T12:43:26.060Z,20.64
2023-03-27T12:44:26.042Z,20.78
2023-03-27T12:45:26.065Z,20.93
2023-03-27T12:46:26.156Z,21.03
2023-03-27T12:47:26.175Z,21.01
2023-03-27T12:48:26.122Z,20.94
2023-03-27T12:49:34.227Z,20.90
2023-03-27T12:50:26.152Z,20.83
2023-03-27T12:51:26.189Z,20.78
2023-03-27T12:52:26.170Z,20.73
2023-03-27T12:53:26.209Z,20.73
2023-03-27T12:54:26.272Z,20.71